createdAt,value
2018-02-06T07:15:04.732Z,41.42
2018-02-06T07:17:38.375Z,33.85
2018-02-06T07:20:08.412Z,32.60
2018-02-06T07:22:40.971Z,28.15
2018-02-06T07:25:08.996Z,29.55
2018-02-06T07:27:37.019Z,25.92
2018-02-06T07:30:19.279Z,28.70
2018-02-06T07:32:47.293Z,28.02
2018-02-06T07:35:15.303Z,31.33
2018-02-06T07:37:43.315Z,35.80
2018-02-06T07:40:11.327Z,27.90
2018-02-06T07:42:43.067Z,32.45
2018-02-06T07:45:11.098Z,32.83
2018-02-06T07:47:41.039Z,32.47
2018-02-06T07:50:09.063Z,27.80
2018-02-06T07:52:37.079Z,31.62
2018-02-06T07:55:05.123Z,27.73
2018-02-06T07:57:37.632Z,29.83
2018-02-06T08:00:06.563Z,30.30
2018-02-06T08:02:35.492Z,28.75
2018-02-06T08:05:03.524Z,27.85
2018-02-06T08:07:31.535Z,30.67
2018-02-06T08:10:01.552Z,27.92
2018-02-06T08:12:29.579Z,33.05
2018-02-06T08:14:57.596Z,30.10
2018-02-06T08:17:29.251Z,26.65
2018-02-06T08:19:57.263Z,26.87
2018-02-06T08:22:25.295Z,29.02
2018-02-06T08:24:53.311Z,28.85
2018-02-06T08:27:27.263Z,29.67
2018-02-06T08:29:55.283Z,30.95
2018-02-06T08:32:23.299Z,30.52
2018-02-06T08:34:58.301Z,30.83
2018-02-06T08:37:26.315Z,28.02
2018-02-06T08:39:55.223Z,30.85
2018-02-06T08:42:26.127Z,24.73
2018-02-06T08:44:57.963Z,25.62
2018-02-06T08:47:26.739Z,27.13
2018-02-06T08:49:55.659Z,24.67
2018-02-06T08:52:23.671Z,25.60
2018-02-06T08:54:53.439Z,27.87
2018-02-06T08:57:21.468Z,29.40
2018-02-06T08:59:51.235Z,32.92
2018-02-06T09:02:19.275Z,29.45
2018-02-06T09:04:47.279Z,27.75
2018-02-06T09:07:18.831Z,23.38
2018-02-06T09:09:48.743Z,24.67
2018-02-06T09:12:16.760Z,25.08
2018-02-06T09:14:45.659Z,26.92
2018-02-06T09:17:13.671Z,26.55
2018-02-06T09:19:45.399Z,27.17
2018-02-06T09:22:14.315Z,24.90
2018-02-06T09:24:44.328Z,24.45
2018-02-06T09:27:13.238Z,27.73
2018-02-06T09:29:47.943Z,21.50
2018-02-06T09:32:15.967Z,24.95
2018-02-06T09:34:43.967Z,23.90
2018-02-06T09:37:12.001Z,22.87
2018-02-06T09:39:40.011Z,25.60
2018-02-06T09:42:08.031Z,23.30
2018-02-06T09:44:38.003Z,22.30
2018-02-06T09:47:06.923Z,17.98
2018-02-06T09:49:37.615Z,20.77
2018-02-06T09:52:09.183Z,25.40
2018-02-06T09:54:38.172Z,24.80
2018-02-06T09:57:06.197Z,23.25
2018-02-06T09:59:34.222Z,28.90
2018-02-06T10:02:02.242Z,27.95
2018-02-06T10:04:31.167Z,28.38
2018-02-06T10:07:00.079Z,24.50
2018-02-06T10:09:28.091Z,25.88
2018-02-06T10:11:56.103Z,25.50
2018-02-06T10:14:26.011Z,28.60
2018-02-06T10:16:54.031Z,21.52
2018-02-06T10:19:22.026Z,21.42
2018-02-06T10:21:50.042Z,24.27
2018-02-06T10:24:18.047Z,22.90
2018-02-06T10:26:46.062Z,25.52
2018-02-06T10:29:15.031Z,20.83
2018-02-06T10:31:43.036Z,26.65
2018-02-06T10:34:11.034Z,30.17
2018-02-06T10:36:39.038Z,25.50
2018-02-06T10:39:07.046Z,28.40
2018-02-06T10:41:40.994Z,20.70
2018-02-06T10:44:09.017Z,23.52
2018-02-06T10:46:42.634Z,22.52
2018-02-06T10:49:13.334Z,25.75
2018-02-06T10:51:45.167Z,26.30
2018-02-06T10:54:13.134Z,20.58
2018-02-06T10:56:41.146Z,27.58
2018-02-06T10:59:10.122Z,27.75
2018-02-06T11:01:38.181Z,25.05
2018-02-06T11:04:06.194Z,20.05
2018-02-06T11:06:34.986Z,22.48
2018-02-06T11:09:04.750Z,23.48
2018-02-06T11:11:32.750Z,24.45
2018-02-06T11:14:02.746Z,23.42
2018-02-06T11:16:30.770Z,22.67
2018-02-06T11:18:58.806Z,23.38
2018-02-06T11:21:30.322Z,23.95
2018-02-06T11:23:58.354Z,24.27
2018-02-06T11:26:26.362Z,22.20
2018-02-06T11:28:55.278Z,28.33
2018-02-06T11:31:24.246Z,25.80
2018-02-06T11:33:53.250Z,25.62
2018-02-06T11:36:22.245Z,21.67
2018-02-06T11:38:50.258Z,23.25
2018-02-06T11:41:18.298Z,23.67
2018-02-06T11:43:46.298Z,26.40
2018-02-06T11:46:18.702Z,22.25
2018-02-06T11:48:47.610Z,20.88
2018-02-06T11:51:15.620Z,24.30
2018-02-06T11:53:45.379Z,23.33
2018-02-06T11:56:13.378Z,23.85
2018-02-06T11:58:47.331Z,19.45
2018-02-06T12:01:16.262Z,26.83
2018-02-06T12:03:44.254Z,22.27
2018-02-06T12:06:13.042Z,21.70
2018-02-06T12:08:42.002Z,20.37
2018-02-06T12:11:10.010Z,25.75
2018-02-06T12:13:38.777Z,17.92
2018-02-06T12:16:07.745Z,22.23
2018-02-06T12:18:41.545Z,21.85
2018-02-06T12:21:12.595Z,18.30
2018-02-06T12:23:45.233Z,21.80
2018-02-06T12:26:16.809Z,19.42
2018-02-06T12:28:53.065Z,25.42
2018-02-06T12:31:24.018Z,20.42
2018-02-06T12:33:55.989Z,25.70
2018-02-06T12:36:24.993Z,19.37
2018-02-06T12:38:56.540Z,21.33
2018-02-06T12:41:25.525Z,20.23
2018-02-06T12:43:53.533Z,16.40
2018-02-06T12:46:22.465Z,18.67
2018-02-06T12:48:54.049Z,20.67
2018-02-06T12:51:22.055Z,19.58
2018-02-06T12:53:52.738Z,22.33
2018-02-06T12:56:20.769Z,24.27
2018-02-06T12:58:48.770Z,18.83
2018-02-06T13:01:16.791Z,16.50
2018-02-06T13:03:45.565Z,21.60
2018-02-06T13:06:14.465Z,19.65
2018-02-06T13:08:46.892Z,21.55
2018-02-06T13:11:14.910Z,25.88
2018-02-06T13:13:43.680Z,19.33
2018-02-06T13:16:16.249Z,21.27
2018-02-06T13:18:45.213Z,22.60
2018-02-06T13:21:13.283Z,20.50
2018-02-06T13:23:42.025Z,22.83
2018-02-06T13:26:11.789Z,18.27
2018-02-06T13:28:39.793Z,21.73
2018-02-06T13:31:08.569Z,20.55
2018-02-06T13:33:36.585Z,22.25
2018-02-06T13:36:04.601Z,20.35
2018-02-06T13:38:32.605Z,20.62
2018-02-06T13:41:03.381Z,20.08
2018-02-06T13:43:32.377Z,20.37
2018-02-06T13:46:01.381Z,23.73
2018-02-06T13:48:35.181Z,24.23
2018-02-06T13:51:04.165Z,20.80
2018-02-06T13:53:32.180Z,22.70
2018-02-06T13:56:05.536Z,19.52
2018-02-06T13:58:33.549Z,21.60
2018-02-06T14:01:02.334Z,24.00
2018-02-06T14:03:32.109Z,19.23
2018-02-06T14:06:06.197Z,24.48
2018-02-06T14:08:34.216Z,24.20
2018-02-06T14:11:02.357Z,21.48
2018-02-06T14:13:34.781Z,29.30
2018-02-06T14:16:06.605Z,25.85
2018-02-06T14:18:34.609Z,20.88
2018-02-06T14:21:02.637Z,21.50
2018-02-06T14:23:30.653Z,24.27
2018-02-06T14:25:58.673Z,21.25
2018-02-06T14:28:27.793Z,25.42
2018-02-06T14:30:55.801Z,22.00
2018-02-06T14:33:25.757Z,19.00
2018-02-06T14:35:53.773Z,21.25
2018-02-06T14:38:27.601Z,25.48
2018-02-06T14:40:55.609Z,26.62
2018-02-06T14:43:23.617Z,25.27
2018-02-06T14:45:52.553Z,23.60
2018-02-06T14:48:20.569Z,23.30
2018-02-06T14:50:49.345Z,20.90
2018-02-06T14:53:19.113Z,21.60
2018-02-06T14:55:52.121Z,21.00
2018-02-06T14:58:21.025Z,23.02
2018-02-06T15:00:49.921Z,21.77
2018-02-06T15:03:18.705Z,22.77
2018-02-06T15:05:51.045Z,20.55
2018-02-06T15:08:22.704Z,25.10
2018-02-06T15:10:55.480Z,26.52
2018-02-06T15:13:23.476Z,24.25
2018-02-06T15:15:52.297Z,19.27
2018-02-06T15:18:20.309Z,26.58
2018-02-06T15:20:48.312Z,17.45
2018-02-06T15:23:21.008Z,21.85
2018-02-06T15:25:49.030Z,23.90
2018-02-06T15:28:17.049Z,25.20
2018-02-06T15:30:45.061Z,22.02
2018-02-06T15:33:13.101Z,22.20
2018-02-06T15:35:41.120Z,20.58
2018-02-06T15:38:11.022Z,20.25
2018-02-06T15:40:39.033Z,24.27
2018-02-06T15:43:09.863Z,21.87
2018-02-06T15:45:37.825Z,23.83
2018-02-06T15:48:06.635Z,21.12
2018-02-06T15:50:35.397Z,19.58
2018-02-06T15:53:10.904Z,20.50
2018-02-06T15:55:46.528Z,26.52
2018-02-06T15:58:20.361Z,27.48
2018-02-06T16:01:06.189Z,22.70
2018-02-06T16:03:35.001Z,23.67
2018-02-06T16:06:05.680Z,23.30
2018-02-06T16:08:33.692Z,28.90
2018-02-06T16:11:02.605Z,23.17
2018-02-06T16:13:31.642Z,21.05
2018-02-06T16:15:59.685Z,25.12
2018-02-06T16:18:27.737Z,26.52
2018-02-06T16:20:55.745Z,25.12
2018-02-06T16:23:23.756Z,25.15
2018-02-06T16:25:52.696Z,22.67
2018-02-06T16:28:22.076Z,24.73
2018-02-06T16:30:50.045Z,26.25
2018-02-06T16:33:28.264Z,30.55
2018-02-06T16:36:03.889Z,21.98
2018-02-06T16:38:35.989Z,21.95
2018-02-06T16:41:04.001Z,26.70
2018-02-06T16:43:34.693Z,22.75
2018-02-06T16:46:10.813Z,29.08
2018-02-06T16:48:49.029Z,27.33
2018-02-06T16:51:17.037Z,26.50
2018-02-06T16:53:46.017Z,25.17
2018-02-06T16:56:17.792Z,27.27
2018-02-06T16:58:46.781Z,24.12
2018-02-06T17:01:14.793Z,26.05
2018-02-06T17:03:43.717Z,28.70
2018-02-06T17:06:11.729Z,23.42
2018-02-06T17:08:39.753Z,29.92
2018-02-06T17:11:07.764Z,24.80
2018-02-06T17:13:37.745Z,32.42
2018-02-06T17:16:06.744Z,30.02
2018-02-06T17:18:36.768Z,32.80
2018-02-06T17:21:05.673Z,35.72
2018-02-06T17:23:33.697Z,33.97
2018-02-06T17:26:01.733Z,30.77
2018-02-06T17:28:31.696Z,32.83
2018-02-06T17:30:59.712Z,26.73
2018-02-06T17:33:27.724Z,29.73
2018-02-06T17:35:57.185Z,27.02
2018-02-06T17:38:25.968Z,25.70
2018-02-06T17:40:54.760Z,26.42
2018-02-06T17:43:24.067Z,32.35
2018-02-06T17:45:55.520Z,28.52
2018-02-06T17:48:23.556Z,31.80
2018-02-06T17:50:52.529Z,34.85
2018-02-06T17:53:20.540Z,31.27
2018-02-06T17:55:53.284Z,30.42
2018-02-06T17:58:21.295Z,37.25
2018-02-06T18:00:50.968Z,37.03
2018-02-06T18:03:18.988Z,29.33
2018-02-06T18:05:47.912Z,31.52
2018-02-06T18:08:15.924Z,29.70
2018-02-06T18:10:47.858Z,33.20
2018-02-06T18:13:15.872Z,29.30
2018-02-06T18:15:53.920Z,33.22
2018-02-06T18:18:21.904Z,35.20
2018-02-06T18:20:49.933Z,30.37
2018-02-06T18:23:19.620Z,32.63
2018-02-06T18:25:47.672Z,39.53
2018-02-06T18:28:17.458Z,33.78
2018-02-06T18:30:53.076Z,34.05
2018-02-06T18:33:35.456Z,30.88
2018-02-06T18:36:03.464Z,33.92
2018-02-06T18:38:33.384Z,32.35
2018-02-06T18:41:02.380Z,26.20
2018-02-06T18:43:36.916Z,33.65
2018-02-06T18:46:05.858Z,26.95
2018-02-06T18:48:34.804Z,31.90
2018-02-06T18:51:03.804Z,30.15
2018-02-06T18:53:31.845Z,30.48
2018-02-06T18:55:59.840Z,29.15
2018-02-06T18:58:40.932Z,33.20
2018-02-06T19:01:09.752Z,30.77
2018-02-06T19:03:37.784Z,24.45
2018-02-06T19:06:05.800Z,25.48
2018-02-06T19:08:38.853Z,32.72
2018-02-06T19:11:07.788Z,24.23
2018-02-06T19:13:36.788Z,27.80
2018-02-06T19:16:10.200Z,31.23
2018-02-06T19:18:39.100Z,34.22
2018-02-06T19:21:09.108Z,29.15
2018-02-06T19:23:37.132Z,28.92
2018-02-06T19:26:22.696Z,29.83
2018-02-06T19:28:52.664Z,34.67
2018-02-06T19:31:21.663Z,31.80
2018-02-06T19:33:53.204Z,25.50
2018-02-06T19:36:25.118Z,32.70
2018-02-06T19:38:53.220Z,29.55
2018-02-06T19:41:24.280Z,31.80
2018-02-06T19:44:07.251Z,38.97
2018-02-06T19:46:40.391Z,31.08
2018-02-06T19:49:16.879Z,32.95
2018-02-06T19:51:49.121Z,37.33
2018-02-06T19:54:21.008Z,30.15
2018-02-06T19:56:54.792Z,32.63
2018-02-06T19:59:23.100Z,29.58
2018-02-06T20:01:51.304Z,35.13
2018-02-06T20:04:24.929Z,34.78
2018-02-06T20:06:59.308Z,29.45
2018-02-06T20:09:27.342Z,27.13
2018-02-06T20:11:57.336Z,37.30
2018-02-06T20:14:32.983Z,30.95
2018-02-06T20:17:13.735Z,34.70
2018-02-06T20:19:49.587Z,31.58
2018-02-06T20:22:19.284Z,32.20
2018-02-06T20:24:48.219Z,34.00
2018-02-06T20:27:20.456Z,31.87
2018-02-06T20:29:49.492Z,34.58
2018-02-06T20:32:17.540Z,37.15
2018-02-06T20:34:48.943Z,36.65
2018-02-06T20:37:16.964Z,27.50
2018-02-06T20:39:48.415Z,31.90
2018-02-06T20:42:24.847Z,28.77
2018-02-06T20:44:52.892Z,31.33
2018-02-06T20:47:25.888Z,35.38
2018-02-06T20:49:54.891Z,44.70
2018-02-06T20:52:23.831Z,27.60
2018-02-06T20:54:53.833Z,32.13
2018-02-06T20:57:26.008Z,38.25
2018-02-06T20:59:54.036Z,34.80
2018-02-06T21:02:27.319Z,37.00
2018-02-06T21:04:56.255Z,34.85
2018-02-06T21:07:30.179Z,41.63
2018-02-06T21:09:58.223Z,40.12
2018-02-06T21:12:36.560Z,34.55
2018-02-06T21:15:07.579Z,34.05
2018-02-06T21:17:37.607Z,34.92
2018-02-06T21:20:07.627Z,39.15
2018-02-06T21:22:42.331Z,32.92
2018-02-06T21:25:12.281Z,35.17
2018-02-06T21:27:40.307Z,37.92
2018-02-06T21:30:10.236Z,39.65
2018-02-06T21:32:38.275Z,35.10
2018-02-06T21:35:09.727Z,39.50
2018-02-06T21:37:37.851Z,36.83
2018-02-06T21:40:13.259Z,36.60
2018-02-06T21:42:42.287Z,35.20
2018-02-06T21:45:13.831Z,36.70
2018-02-06T21:47:42.739Z,36.15
2018-02-06T21:50:12.439Z,43.20
2018-02-06T21:52:41.431Z,41.00
2018-02-06T21:55:12.763Z,38.25
2018-02-06T21:57:44.319Z,36.60
2018-02-06T22:00:12.335Z,36.17
2018-02-06T22:02:41.271Z,34.30
2018-02-06T22:05:09.307Z,35.95
2018-02-06T22:07:38.335Z,28.85
2018-02-06T22:10:06.381Z,29.35
2018-02-06T22:12:34.403Z,27.80
2018-02-06T22:15:06.743Z,31.85
2018-02-06T22:17:34.775Z,39.03
2018-02-06T22:20:02.799Z,43.05
2018-02-06T22:22:40.686Z,31.33
2018-02-06T22:25:12.760Z,33.85
2018-02-06T22:27:41.753Z,40.53
2018-02-06T22:30:22.775Z,36.53
2018-02-06T22:32:51.711Z,32.50
2018-02-06T22:35:25.422Z,39.22
2018-02-06T22:37:54.250Z,35.85
2018-02-06T22:40:22.271Z,34.25
2018-02-06T22:42:51.259Z,30.45
2018-02-06T22:45:23.090Z,47.25
2018-02-06T22:47:52.515Z,34.13
2018-02-06T22:50:20.487Z,38.85
2018-02-06T22:52:53.307Z,38.33
2018-02-06T22:55:28.282Z,43.13
2018-02-06T22:57:58.222Z,39.40
2018-02-06T23:00:28.151Z,40.12
2018-02-06T23:02:57.131Z,36.22
2018-02-06T23:05:25.147Z,37.30
2018-02-06T23:07:56.007Z,37.50
2018-02-06T23:10:25.939Z,38.50
2018-02-06T23:12:53.955Z,44.72
2018-02-06T23:15:22.738Z,41.03
2018-02-06T23:17:53.163Z,30.45
2018-02-06T23:20:33.158Z,37.17
2018-02-06T23:23:03.170Z,39.55
2018-02-06T23:25:31.207Z,33.92
2018-02-06T23:28:00.979Z,40.83
2018-02-06T23:30:34.435Z,40.45
2018-02-06T23:33:02.467Z,42.55
2018-02-06T23:35:33.618Z,41.83
2018-02-06T23:38:09.511Z,45.25
2018-02-06T23:40:38.559Z,40.70
2018-02-06T23:43:06.560Z,36.85
2018-02-06T23:45:35.491Z,39.78
2018-02-06T23:48:14.907Z,39.45
2018-02-06T23:50:42.947Z,37.47
2018-02-06T23:53:25.142Z,38.70
2018-02-06T23:55:55.834Z,38.30
2018-02-06T23:58:24.814Z,43.63
